Time;durP1;ratioP1;P1;durP2;ratioP2;P2;SDS_P1;SDS_P2;PMS_P1;PMS_P2;Temp;Humidity;BMP_temperature;BMP_pressure;BME280_temperature;BME280_humidity;BME280_pressure;Samples;Min_cycle;Max_cycle;Signal;HPM_P1;HPM_P2
2021/05/16 00:00:08;;;;;;;55.03;10.73;;;;;;;;;;5076977;28;20028;-63
2021/05/16 00:02:34;;;;;;;49.87;11.00;;;;;;;;;;5083369;28;20044;-64
2021/05/16 00:05:00;;;;;;;43.63;9.90;;;;;;;;;;5079032;28;20268;-64
2021/05/16 00:07:26;;;;;;;62.38;14.27;;;;;;;;;;5078140;28;20032;-64
2021/05/16 00:09:52;;;;;;;49.35;12.77;;;;;;;;;;5085676;28;20102;-64
2021/05/16 00:12:18;;;;;;;57.65;12.43;;;;;;;;;;5084398;28;20062;-63
2021/05/16 00:14:45;;;;;;;46.92;11.93;;;;;;;;;;5084133;28;20050;-64
2021/05/16 00:17:11;;;;;;;50.03;13.40;;;;;;;;;;5080746;28;20027;-63
2021/05/16 00:19:38;;;;;;;49.83;12.10;;;;;;;;;;5080897;28;20024;-64
2021/05/16 00:22:04;;;;;;;58.92;13.65;;;;;;;;;;5086030;28;20099;-65
2021/05/16 00:24:30;;;;;;;58.22;13.73;;;;;;;;;;5079366;28;20024;-63
2021/05/16 00:26:56;;;;;;;51.90;12.50;;;;;;;;;;5083064;28;20307;-64
2021/05/16 00:29:23;;;;;;;52.40;14.20;;;;;;;;;;5079377;28;20013;-64
2021/05/16 00:31:49;;;;;;;53.70;13.57;;;;;;;;;;5082165;28;20020;-68
2021/05/16 00:34:15;;;;;;;54.40;12.73;;;;;;;;;;5081076;28;20067;-67
2021/05/16 00:36:41;;;;;;;52.25;11.13;;;;;;;;;;5066032;28;20496;-68
2021/05/16 00:39:07;;;;;;;52.10;12.93;;;;;;;;;;5080861;28;20052;-67
2021/05/16 00:41:34;;;;;;;59.00;13.43;;;;;;;;;;5086454;28;20028;-70
2021/05/16 00:44:00;;;;;;;57.45;14.15;;;;;;;;;;5086730;28;20033;-71
2021/05/16 00:46:26;;;;;;;48.78;13.80;;;;;;;;;;5084758;28;20437;-68
2021/05/16 00:48:52;;;;;;;41.28;10.50;;;;;;;;;;5078747;28;20024;-67
2021/05/16 00:51:18;;;;;;;49.97;12.48;;;;;;;;;;5081055;28;20192;-66
2021/05/16 00:53:45;;;;;;;49.78;12.05;;;;;;;;;;5060751;28;20052;-67
2021/05/16 00:56:11;;;;;;;41.85;10.85;;;;;;;;;;5078512;28;20040;-65
2021/05/16 00:58:37;;;;;;;57.50;13.70;;;;;;;;;;5079274;28;20078;-66
2021/05/16 01:01:08;;;;;;;46.30;12.00;;;;;;;;;;5068906;28;20016;-66
2021/05/16 01:03:34;;;;;;;54.38;14.18;;;;;;;;;;5065598;28;20071;-66
2021/05/16 01:06:00;;;;;;;59.95;13.82;;;;;;;;;;5079846;28;20027;-68
2021/05/16 01:08:26;;;;;;;53.70;13.23;;;;;;;;;;5085020;28;20483;-69
2021/05/16 01:10:52;;;;;;;63.03;17.50;;;;;;;;;;5087444;28;20036;-67
2021/05/16 01:13:19;;;;;;;53.38;16.80;;;;;;;;;;5084737;28;20027;-67
2021/05/16 01:15:46;;;;;;;53.20;16.73;;;;;;;;;;5082934;28;20110;-67
2021/05/16 01:18:12;;;;;;;60.00;16.67;;;;;;;;;;5083741;28;20040;-67
2021/05/16 01:20:40;;;;;;;64.80;16.75;;;;;;;;;;5083606;28;20016;-66
2021/05/16 01:23:11;;;;;;;68.82;17.48;;;;;;;;;;5084570;28;20028;-66
2021/05/16 01:25:38;;;;;;;60.97;18.33;;;;;;;;;;5084890;28;20077;-66
2021/05/16 01:28:05;;;;;;;51.20;15.43;;;;;;;;;;5080998;28;20372;-67
2021/05/16 01:30:31;;;;;;;67.63;20.42;;;;;;;;;;5081373;28;20036;-67
2021/05/16 01:32:57;;;;;;;62.60;15.23;;;;;;;;;;5084171;28;20029;-66
2021/05/16 01:35:24;;;;;;;58.38;16.58;;;;;;;;;;5091574;28;20023;-66
2021/05/16 01:37:50;;;;;;;52.80;16.63;;;;;;;;;;5089810;28;20112;-66
2021/05/16 01:40:17;;;;;;;54.15;13.90;;;;;;;;;;5085056;28;20500;-66
2021/05/16 01:42:48;;;;;;;51.83;13.32;;;;;;;;;;5082024;28;20024;-66
2021/05/16 01:45:15;;;;;;;52.23;12.67;;;;;;;;;;5082530;28;20024;-66
2021/05/16 01:47:41;;;;;;;63.85;14.23;;;;;;;;;;5080192;28;20097;-66
2021/05/16 01:50:09;;;;;;;49.85;13.82;;;;;;;;;;5083363;28;20039;-66
2021/05/16 01:52:36;;;;;;;59.35;13.23;;;;;;;;;;5082162;28;20070;-65
2021/05/16 01:55:02;;;;;;;71.82;16.02;;;;;;;;;;5082681;28;20020;-65
2021/05/16 01:57:28;;;;;;;54.33;12.55;;;;;;;;;;5081010;28;20020;-65
2021/05/16 01:59:55;;;;;;;57.78;13.70;;;;;;;;;;5083609;28;20480;-66
2021/05/16 02:02:21;;;;;;;44.92;12.57;;;;;;;;;;5084762;28;20041;-66
2021/05/16 02:04:48;;;;;;;58.67;13.43;;;;;;;;;;5083436;28;20040;-66
2021/05/16 02:07:14;;;;;;;53.35;11.57;;;;;;;;;;5076399;28;20106;-66
2021/05/16 02:09:41;;;;;;;53.92;10.77;;;;;;;;;;5080168;28;20043;-65
2021/05/16 02:12:08;;;;;;;49.08;10.95;;;;;;;;;;5083835;28;20160;-65
2021/05/16 02:14:34;;;;;;;61.83;12.18;;;;;;;;;;5083474;28;20032;-65
2021/05/16 02:17:01;;;;;;;57.80;14.18;;;;;;;;;;5082134;28;20012;-64
2021/05/16 02:19:28;;;;;;;55.00;12.13;;;;;;;;;;5086002;28;20093;-64
2021/05/16 02:21:54;;;;;;;61.13;13.35;;;;;;;;;;5065743;28;20050;-65
2021/05/16 02:24:20;;;;;;;58.33;11.10;;;;;;;;;;5081209;28;20035;-65
2021/05/16 02:26:47;;;;;;;55.72;11.43;;;;;;;;;;5084154;28;20028;-65
2021/05/16 02:29:14;;;;;;;63.83;12.65;;;;;;;;;;5062862;28;20523;-65
2021/05/16 02:31:40;;;;;;;53.50;12.77;;;;;;;;;;5078828;28;20024;-64
2021/05/16 02:34:07;;;;;;;62.45;13.60;;;;;;;;;;5080826;28;20043;-65
2021/05/16 02:36:33;;;;;;;70.90;14.85;;;;;;;;;;5063818;28;20562;-65
2021/05/16 02:38:59;;;;;;;69.53;14.18;;;;;;;;;;5061407;28;20032;-64
2021/05/16 02:41:25;;;;;;;65.95;14.18;;;;;;;;;;5082614;28;20028;-64
2021/05/16 02:43:51;;;;;;;60.67;14.65;;;;;;;;;;5079725;28;20078;-65
2021/05/16 02:46:17;;;;;;;56.83;13.15;;;;;;;;;;5084472;28;20032;-65
2021/05/16 02:48:43;;;;;;;64.90;14.50;;;;;;;;;;5080252;28;20028;-65
2021/05/16 02:51:09;;;;;;;58.50;14.82;;;;;;;;;;5081180;28;20029;-64
2021/05/16 02:53:35;;;;;;;66.95;14.18;;;;;;;;;;5083858;28;20024;-65
2021/05/16 02:56:02;;;;;;;60.75;13.13;;;;;;;;;;5083739;28;20481;-64
2021/05/16 02:58:28;;;;;;;72.65;17.55;;;;;;;;;;5064298;28;20028;-65
2021/05/16 03:00:54;;;;;;;61.85;14.52;;;;;;;;;;5082556;28;20104;-65
2021/05/16 03:03:20;;;;;;;58.45;15.30;;;;;;;;;;5080783;28;20049;-65
2021/05/16 03:05:46;;;;;;;63.83;13.05;;;;;;;;;;5080586;28;20024;-65
2021/05/16 03:08:12;;;;;;;64.20;15.45;;;;;;;;;;5079859;28;20028;-65
2021/05/16 03:10:38;;;;;;;59.42;15.02;;;;;;;;;;5081154;28;20093;-65
2021/05/16 03:13:05;;;;;;;63.50;13.48;;;;;;;;;;5082027;28;20020;-64
2021/05/16 03:15:31;;;;;;;58.70;14.55;;;;;;;;;;5085227;28;20024;-65
2021/05/16 03:17:57;;;;;;;67.38;15.32;;;;;;;;;;5081842;28;20100;-65
2021/05/16 03:20:23;;;;;;;63.35;15.95;;;;;;;;;;5063855;28;20173;-65
2021/05/16 03:22:50;;;;;;;63.45;14.95;;;;;;;;;;5060713;28;20142;-64
2021/05/16 03:25:16;;;;;;;70.55;14.55;;;;;;;;;;5084570;28;20035;-64
2021/05/16 03:27:42;;;;;;;55.97;12.40;;;;;;;;;;5076754;28;20115;-63
2021/05/16 03:30:10;;;;;;;79.03;16.52;;;;;;;;;;5080908;28;20032;-64
2021/05/16 03:32:36;;;;;;;65.25;17.52;;;;;;;;;;5078843;28;20024;-64
2021/05/16 03:35:04;;;;;;;56.22;14.32;;;;;;;;;;5079129;28;20016;-64
2021/05/16 03:37:30;;;;;;;63.08;15.90;;;;;;;;;;5079853;28;20016;-64
2021/05/16 03:39:56;;;;;;;74.88;17.17;;;;;;;;;;5080150;28;20020;-64
2021/05/16 03:42:22;;;;;;;53.83;14.55;;;;;;;;;;5081414;28;20035;-65
2021/05/16 03:44:49;;;;;;;54.10;14.32;;;;;;;;;;5076948;28;20510;-64
2021/05/16 03:47:15;;;;;;;62.45;15.02;;;;;;;;;;5079070;28;20907;-64
2021/05/16 03:49:41;;;;;;;56.83;15.07;;;;;;;;;;5083982;28;20048;-64
2021/05/16 03:52:07;;;;;;;59.03;13.88;;;;;;;;;;5082420;28;20112;-64
2021/05/16 03:54:33;;;;;;;62.58;14.25;;;;;;;;;;5081830;28;20034;-64
2021/05/16 03:57:00;;;;;;;58.83;14.82;;;;;;;;;;5081512;28;20021;-64
2021/05/16 03:59:26;;;;;;;50.58;13.52;;;;;;;;;;5079899;28;20031;-64
2021/05/16 04:01:52;;;;;;;58.92;12.65;;;;;;;;;;5080799;28;20633;-64
2021/05/16 04:04:18;;;;;;;61.17;15.30;;;;;;;;;;5077100;28;20527;-64
2021/05/16 04:06:44;;;;;;;61.00;14.73;;;;;;;;;;5083726;28;20084;-64
2021/05/16 04:09:10;;;;;;;52.60;12.43;;;;;;;;;;5083103;28;20027;-64
2021/05/16 04:11:36;;;;;;;61.10;13.88;;;;;;;;;;5077826;28;20025;-64
2021/05/16 04:14:03;;;;;;;61.03;13.95;;;;;;;;;;5079093;28;20035;-64
2021/05/16 04:16:29;;;;;;;54.50;14.00;;;;;;;;;;5062923;28;20308;-64
2021/05/16 04:18:55;;;;;;;57.30;13.77;;;;;;;;;;5063930;28;20024;-64
2021/05/16 04:21:21;;;;;;;52.38;13.43;;;;;;;;;;5083462;28;20050;-64
2021/05/16 04:23:47;;;;;;;58.65;14.05;;;;;;;;;;5080320;28;20040;-64
2021/05/16 04:26:14;;;;;;;51.88;12.65;;;;;;;;;;5080914;28;20033;-64
2021/05/16 04:28:40;;;;;;;43.35;11.65;;;;;;;;;;5078345;28;20028;-64
2021/05/16 04:31:06;;;;;;;60.28;12.90;;;;;;;;;;5079587;28;20024;-64
2021/05/16 04:33:32;;;;;;;52.05;11.85;;;;;;;;;;5079406;28;20102;-65
2021/05/16 04:35:59;;;;;;;50.28;12.57;;;;;;;;;;5083103;28;20043;-63
2021/05/16 04:38:25;;;;;;;57.63;12.57;;;;;;;;;;5087389;28;20028;-64
2021/05/16 04:40:51;;;;;;;47.17;12.90;;;;;;;;;;5086512;28;20120;-64
2021/05/16 04:43:17;;;;;;;46.75;12.07;;;;;;;;;;5085332;28;20043;-64
2021/05/16 04:45:43;;;;;;;48.38;11.63;;;;;;;;;;5070143;28;20130;-64
2021/05/16 04:48:09;;;;;;;43.63;11.55;;;;;;;;;;5083700;28;20432;-64
2021/05/16 04:50:35;;;;;;;58.13;12.00;;;;;;;;;;5082859;28;20029;-63
2021/05/16 04:53:01;;;;;;;56.00;11.98;;;;;;;;;;5085316;28;20027;-63
2021/05/16 04:55:27;;;;;;;53.92;12.18;;;;;;;;;;5087155;28;20036;-63
2021/05/16 04:57:54;;;;;;;48.00;12.75;;;;;;;;;;5083629;28;20065;-63
2021/05/16 05:00:20;;;;;;;44.33;11.50;;;;;;;;;;5086871;28;20024;-63
2021/05/16 05:02:47;;;;;;;43.83;12.65;;;;;;;;;;5082992;28;20040;-63
2021/05/16 05:05:14;;;;;;;39.25;11.70;;;;;;;;;;5080541;28;20072;-63
2021/05/16 05:07:40;;;;;;;50.08;12.80;;;;;;;;;;5086698;28;20021;-63
2021/05/16 05:10:07;;;;;;;55.75;12.90;;;;;;;;;;5082864;28;20051;-64
2021/05/16 05:12:33;;;;;;;48.70;13.38;;;;;;;;;;5061910;28;20032;-63
2021/05/16 05:14:59;;;;;;;60.90;13.57;;;;;;;;;;5083215;28;20044;-63
2021/05/16 05:17:25;;;;;;;46.50;12.60;;;;;;;;;;5070959;28;20081;-63
2021/05/16 05:19:51;;;;;;;48.72;11.15;;;;;;;;;;5089703;28;20032;-63
2021/05/16 05:22:17;;;;;;;59.88;12.13;;;;;;;;;;5088466;28;20020;-63
2021/05/16 05:24:43;;;;;;;41.30;11.82;;;;;;;;;;5090095;28;20381;-64
2021/05/16 05:27:09;;;;;;;56.05;11.32;;;;;;;;;;5088490;28;20462;-64
2021/05/16 05:29:36;;;;;;;44.75;12.30;;;;;;;;;;5086287;28;20062;-64
2021/05/16 05:32:02;;;;;;;44.75;11.07;;;;;;;;;;5078221;28;20043;-64
2021/05/16 05:34:28;;;;;;;40.80;9.70;;;;;;;;;;5072620;28;20511;-64
2021/05/16 05:36:54;;;;;;;44.67;10.30;;;;;;;;;;5088869;28;20012;-64
2021/05/16 05:39:21;;;;;;;43.53;11.23;;;;;;;;;;5079296;28;20498;-64
2021/05/16 05:41:47;;;;;;;50.72;10.90;;;;;;;;;;5084566;28;20031;-64
2021/05/16 05:44:13;;;;;;;54.90;11.40;;;;;;;;;;5058858;28;20036;-64
2021/05/16 05:46:40;;;;;;;44.10;10.50;;;;;;;;;;5088819;28;20028;-64
2021/05/16 05:49:06;;;;;;;49.30;11.02;;;;;;;;;;5087992;28;20074;-64
2021/05/16 05:51:32;;;;;;;45.20;11.93;;;;;;;;;;5088207;28;20036;-64
2021/05/16 05:53:58;;;;;;;50.15;9.95;;;;;;;;;;5091952;28;20039;-64
2021/05/16 05:56:25;;;;;;;37.00;10.02;;;;;;;;;;5085548;28;20040;-64
2021/05/16 05:58:51;;;;;;;50.15;10.77;;;;;;;;;;5087259;28;20015;-65
2021/05/16 06:01:17;;;;;;;43.50;9.48;;;;;;;;;;5093531;28;20031;-64
2021/05/16 06:03:45;;;;;;;43.65;9.02;;;;;;;;;;5090641;28;20043;-64
2021/05/16 06:06:11;;;;;;;46.60;8.70;;;;;;;;;;5082179;28;20028;-65
2021/05/16 06:08:38;;;;;;;37.10;9.55;;;;;;;;;;5086564;28;20035;-64
2021/05/16 06:11:04;;;;;;;34.38;8.50;;;;;;;;;;5092965;28;20081;-65
2021/05/16 06:13:30;;;;;;;44.55;9.60;;;;;;;;;;5093132;28;20028;-64
2021/05/16 06:15:56;;;;;;;38.03;8.82;;;;;;;;;;5091846;28;20032;-68
2021/05/16 06:18:23;;;;;;;45.33;11.00;;;;;;;;;;5090590;28;20031;-68
2021/05/16 06:20:50;;;;;;;33.08;7.88;;;;;;;;;;5092104;28;20387;-66
2021/05/16 06:23:17;;;;;;;40.33;9.30;;;;;;;;;;5092245;28;20487;-65
2021/05/16 06:25:43;;;;;;;36.83;9.15;;;;;;;;;;5092618;28;20024;-65
2021/05/16 06:28:09;;;;;;;45.72;10.45;;;;;;;;;;5091059;28;20028;-66
2021/05/16 06:30:35;;;;;;;46.10;10.38;;;;;;;;;;5090535;28;20028;-65
2021/05/16 06:33:01;;;;;;;38.65;9.27;;;;;;;;;;5090859;28;20028;-65
2021/05/16 06:35:27;;;;;;;55.85;10.32;;;;;;;;;;5074221;28;20027;-65
2021/05/16 06:37:53;;;;;;;44.00;10.90;;;;;;;;;;5071771;28;20023;-65
2021/05/16 06:40:20;;;;;;;52.25;11.75;;;;;;;;;;5091797;28;20024;-66
2021/05/16 06:42:46;;;;;;;38.78;10.95;;;;;;;;;;5090963;28;20046;-65
2021/05/16 06:45:13;;;;;;;40.20;11.00;;;;;;;;;;5091263;28;20028;-65
2021/05/16 06:47:39;;;;;;;48.25;12.73;;;;;;;;;;5090669;28;20020;-65
2021/05/16 06:50:06;;;;;;;52.85;13.40;;;;;;;;;;5088563;28;20020;-65
2021/05/16 06:52:32;;;;;;;42.55;11.15;;;;;;;;;;5090921;28;20060;-65
2021/05/16 06:54:58;;;;;;;39.42;11.23;;;;;;;;;;5092064;28;20069;-64
2021/05/16 06:57:24;;;;;;;51.50;12.43;;;;;;;;;;5070570;28;20040;-64
2021/05/16 06:59:50;;;;;;;50.28;11.68;;;;;;;;;;5078991;28;20034;-64
2021/05/16 07:02:16;;;;;;;49.08;12.05;;;;;;;;;;5090909;28;20054;-65
2021/05/16 07:04:44;;;;;;;45.47;11.00;;;;;;;;;;5073844;28;20062;-64
2021/05/16 07:07:10;;;;;;;47.80;12.00;;;;;;;;;;5071718;28;20048;-64
2021/05/16 07:09:37;;;;;;;48.72;11.25;;;;;;;;;;5090779;28;20020;-64
2021/05/16 07:12:03;;;;;;;36.03;9.68;;;;;;;;;;5073098;28;20561;-64
2021/05/16 07:14:29;;;;;;;51.42;10.95;;;;;;;;;;5073899;28;20123;-64
2021/05/16 07:16:55;;;;;;;56.78;11.63;;;;;;;;;;5071637;28;20183;-64
2021/05/16 07:19:23;;;;;;;38.95;12.65;;;;;;;;;;5091219;28;20028;-64
2021/05/16 07:21:49;;;;;;;44.03;13.40;;;;;;;;;;5085246;28;20105;-64
2021/05/16 07:24:15;;;;;;;41.45;10.45;;;;;;;;;;5086036;28;20097;-64
2021/05/16 07:26:41;;;;;;;44.45;13.63;;;;;;;;;;5087107;28;20032;-63
2021/05/16 07:29:07;;;;;;;44.72;12.35;;;;;;;;;;5072693;28;20035;-64
2021/05/16 07:31:34;;;;;;;56.72;14.50;;;;;;;;;;5076709;28;20111;-63
2021/05/16 07:34:00;;;;;;;44.15;14.77;;;;;;;;;;5089708;28;20116;-64
2021/05/16 07:36:26;;;;;;;56.22;14.38;;;;;;;;;;5091290;28;20046;-64
2021/05/16 07:38:52;;;;;;;47.63;14.95;;;;;;;;;;5070271;28;20211;-64
2021/05/16 07:41:18;;;;;;;46.28;14.25;;;;;;;;;;5067424;28;20095;-63
2021/05/16 07:43:45;;;;;;;39.00;12.30;;;;;;;;;;5091547;28;20028;-63
2021/05/16 07:46:12;;;;;;;38.63;12.52;;;;;;;;;;5089095;28;20101;-64
2021/05/16 07:48:38;;;;;;;48.58;12.93;;;;;;;;;;5083612;28;20039;-63
2021/05/16 07:51:04;;;;;;;37.33;12.68;;;;;;;;;;5088437;28;20030;-63
2021/05/16 07:53:31;;;;;;;34.33;11.57;;;;;;;;;;5089105;28;20063;-64
2021/05/16 07:55:57;;;;;;;41.25;13.50;;;;;;;;;;5087997;28;20039;-64
2021/05/16 07:58:23;;;;;;;38.95;13.82;;;;;;;;;;5081653;28;20047;-64
2021/05/16 08:00:49;;;;;;;44.50;13.13;;;;;;;;;;5089766;28;20020;-63
2021/05/16 08:03:15;;;;;;;53.80;15.43;;;;;;;;;;5084007;28;20075;-64
2021/05/16 08:05:41;;;;;;;37.10;12.73;;;;;;;;;;5083193;28;20060;-64
2021/05/16 08:08:07;;;;;;;47.83;13.15;;;;;;;;;;5081252;28;20390;-64
2021/05/16 08:10:34;;;;;;;45.20;12.73;;;;;;;;;;5082381;28;20027;-64
2021/05/16 08:13:00;;;;;;;36.28;11.10;;;;;;;;;;5088257;28;20024;-63
2021/05/16 08:15:26;;;;;;;33.28;10.82;;;;;;;;;;5088555;28;20035;-63
2021/05/16 08:17:53;;;;;;;38.90;11.07;;;;;;;;;;5087279;28;20203;-63
2021/05/16 08:20:19;;;;;;;35.85;9.40;;;;;;;;;;5086039;28;20027;-63
2021/05/16 08:22:45;;;;;;;31.65;10.20;;;;;;;;;;5078602;28;20028;-63
2021/05/16 08:25:12;;;;;;;42.03;10.40;;;;;;;;;;5086907;28;20017;-63
2021/05/16 08:27:39;;;;;;;33.28;9.60;;;;;;;;;;5083808;28;20030;-63
2021/05/16 08:30:06;;;;;;;41.75;10.23;;;;;;;;;;5076236;28;20032;-63
2021/05/16 08:32:32;;;;;;;33.25;8.48;;;;;;;;;;5081063;28;20038;-63
2021/05/16 08:34:58;;;;;;;39.80;9.68;;;;;;;;;;5081762;28;20049;-63
2021/05/16 08:37:24;;;;;;;43.42;9.70;;;;;;;;;;5078491;28;20020;-63
2021/05/16 08:39:50;;;;;;;38.72;9.63;;;;;;;;;;5081711;28;20061;-63
2021/05/16 08:42:17;;;;;;;26.67;8.63;;;;;;;;;;5082765;28;20039;-64
2021/05/16 08:44:43;;;;;;;41.30;9.55;;;;;;;;;;5089439;28;20024;-64
2021/05/16 08:47:09;;;;;;;31.95;9.77;;;;;;;;;;5085977;28;20035;-66
2021/05/16 08:49:36;;;;;;;31.23;8.60;;;;;;;;;;5087598;28;20016;-64
2021/05/16 08:52:02;;;;;;;32.03;8.05;;;;;;;;;;5089464;28;20509;-64
2021/05/16 08:54:28;;;;;;;39.90;7.95;;;;;;;;;;5089730;28;20036;-65
2021/05/16 08:56:55;;;;;;;30.67;7.32;;;;;;;;;;5088405;28;20027;-65
2021/05/16 08:59:23;;;;;;;34.15;6.65;;;;;;;;;;5086225;28;20042;-65
2021/05/16 09:01:59;;;;;;;33.33;6.80;;;;;;;;;;5087663;28;20264;-65
2021/05/16 09:04:29;;;;;;;35.60;8.02;;;;;;;;;;5084445;28;20503;-64
2021/05/16 09:06:56;;;;;;;34.40;5.90;;;;;;;;;;5079036;28;20036;-64
2021/05/16 09:09:27;;;;;;;37.83;6.15;;;;;;;;;;5079764;28;20030;-66
2021/05/16 09:11:54;;;;;;;22.80;4.63;;;;;;;;;;5071922;28;20495;-65
2021/05/16 09:14:38;;;;;;;27.52;5.60;;;;;;;;;;5068261;28;20027;-64
2021/05/16 09:17:23;;;;;;;27.85;5.03;;;;;;;;;;5072482;28;20213;-64
2021/05/16 09:19:51;;;;;;;24.80;5.28;;;;;;;;;;5076992;28;20040;-64
2021/05/16 09:22:30;;;;;;;22.48;5.40;;;;;;;;;;5088560;28;20024;-65
2021/05/16 09:25:14;;;;;;;25.60;5.32;;;;;;;;;;5084879;28;20587;-66
2021/05/16 09:27:41;;;;;;;22.77;3.90;;;;;;;;;;5075235;28;20071;-64
2021/05/16 09:30:17;;;;;;;28.80;5.47;;;;;;;;;;5070595;28;20031;-64
2021/05/16 09:33:09;;;;;;;35.33;7.28;;;;;;;;;;5087817;28;20028;-64
2021/05/16 09:35:38;;;;;;;21.40;4.68;;;;;;;;;;5082062;28;20169;-65
2021/05/16 09:38:12;;;;;;;40.15;6.15;;;;;;;;;;5083124;28;20082;-65
2021/05/16 09:40:43;;;;;;;38.00;6.57;;;;;;;;;;5087960;28;20045;-65
2021/05/16 09:43:12;;;;;;;28.90;5.10;;;;;;;;;;5089605;28;20040;-65
2021/05/16 09:45:42;;;;;;;24.77;6.38;;;;;;;;;;5089073;28;20032;-64
2021/05/16 09:48:33;;;;;;;35.00;7.43;;;;;;;;;;5085304;28;20028;-65
2021/05/16 09:51:08;;;;;;;29.45;5.22;;;;;;;;;;5084920;28;20039;-65
2021/05/16 09:53:34;;;;;;;25.50;6.85;;;;;;;;;;5089222;28;20098;-65
2021/05/16 09:56:26;;;;;;;30.58;5.70;;;;;;;;;;5087084;28;20052;-65
2021/05/16 09:58:52;;;;;;;;;;;;;;;;;;5052372;28;20036;-65
2021/05/16 10:01:19;;;;;;;27.15;6.28;;;;;;;;;;5068749;28;20499;-65
2021/05/16 10:03:47;;;;;;;27.27;6.90;;;;;;;;;;5083693;28;20055;-65
2021/05/16 10:06:13;;;;;;;31.10;7.05;;;;;;;;;;5088051;28;20632;-65
2021/05/16 10:08:39;;;;;;;27.10;4.85;;;;;;;;;;5064249;28;20042;-64
2021/05/16 10:11:05;;;;;;;29.33;6.50;;;;;;;;;;5088760;28;20073;-66
2021/05/16 10:13:34;;;;;;;25.35;4.80;;;;;;;;;;5087680;28;20577;-65
2021/05/16 10:16:01;;;;;;;30.83;5.38;;;;;;;;;;5085251;28;20150;-65
2021/05/16 10:18:28;;;;;;;22.73;5.00;;;;;;;;;;5081660;28;20025;-65
2021/05/16 10:20:55;;;;;;;25.33;5.85;;;;;;;;;;5088342;28;20044;-65
2021/05/16 10:23:34;;;;;;;21.00;4.93;;;;;;;;;;5086986;28;20511;-66
2021/05/16 10:26:19;;;;;;;18.05;5.93;;;;;;;;;;5090553;28;20442;-66
2021/05/16 10:28:54;;;;;;;15.57;4.35;;;;;;;;;;5088580;28;20024;-66
2021/05/16 10:31:38;;;;;;;19.98;5.20;;;;;;;;;;5084180;28;20069;-66
2021/05/16 10:34:23;;;;;;;15.05;3.15;;;;;;;;;;5089172;28;20056;-66
2021/05/16 10:36:49;;;;;;;13.05;3.28;;;;;;;;;;5067836;28;20021;-66
2021/05/16 10:39:35;;;;;;;10.85;2.75;;;;;;;;;;5085966;28;20020;-66
2021/05/16 10:42:20;;;;;;;8.25;1.90;;;;;;;;;;5073598;28;20050;-66
2021/05/16 10:45:01;;;;;;;9.30;1.98;;;;;;;;;;5077247;28;20058;-65
2021/05/16 10:50:23;;;;;;;12.52;1.77;;;;;;;;;;5087091;28;20634;-65
2021/05/16 10:53:00;;;;;;;14.35;2.03;;;;;;;;;;5080046;28;20543;-66
2021/05/16 10:55:26;;;;;;;11.30;1.67;;;;;;;;;;5087439;28;20047;-66
2021/05/16 10:57:52;;;;;;;11.20;1.73;;;;;;;;;;5088250;28;20036;-66
2021/05/16 11:00:21;;;;;;;10.32;2.08;;;;;;;;;;5081873;28;20056;-66
2021/05/16 11:03:00;;;;;;;9.82;1.52;;;;;;;;;;5087298;28;20142;-67
2021/05/16 11:05:51;;;;;;;8.93;1.63;;;;;;;;;;5083424;28;20023;-65
2021/05/16 11:08:20;;;;;;;8.67;1.30;;;;;;;;;;5068224;28;20047;-66
2021/05/16 11:10:50;;;;;;;7.93;1.52;;;;;;;;;;5084613;28;20025;-66
2021/05/16 11:13:28;;;;;;;6.25;1.30;;;;;;;;;;5083776;28;20097;-66
2021/05/16 11:15:54;;;;;;;3.45;0.98;;;;;;;;;;5083378;28;20055;-66
2021/05/16 11:18:22;;;;;;;7.18;1.20;;;;;;;;;;5080501;28;20028;-65
2021/05/16 11:20:51;;;;;;;3.90;1.08;;;;;;;;;;5085927;28;20035;-67
2021/05/16 11:23:25;;;;;;;6.45;1.35;;;;;;;;;;5070367;28;20036;-67
2021/05/16 11:25:55;;;;;;;5.38;1.15;;;;;;;;;;5083220;28;20036;-66
2021/05/16 11:28:22;;;;;;;5.22;0.95;;;;;;;;;;5077824;28;20039;-67
2021/05/16 11:30:49;;;;;;;5.00;1.17;;;;;;;;;;5086477;28;20027;-66
2021/05/16 11:33:28;;;;;;;4.60;1.40;;;;;;;;;;5086318;28;20021;-69
2021/05/16 11:35:55;;;;;;;9.45;1.70;;;;;;;;;;5087548;28;20016;-66
2021/05/16 11:38:24;;;;;;;7.03;1.17;;;;;;;;;;5081142;28;20028;-65
2021/05/16 11:40:50;;;;;;;7.05;1.38;;;;;;;;;;5086770;28;20028;-67
2021/05/16 11:43:17;;;;;;;5.35;0.90;;;;;;;;;;5085616;28;20016;-66
2021/05/16 11:45:44;;;;;;;6.57;1.88;;;;;;;;;;5080763;28;20029;-67
2021/05/16 11:48:23;;;;;;;5.38;1.08;;;;;;;;;;5080157;28;20024;-67
2021/05/16 11:50:50;;;;;;;8.55;1.67;;;;;;;;;;5084578;28;20307;-67
2021/05/16 11:53:21;;;;;;;7.10;1.33;;;;;;;;;;5076612;28;20033;-68
2021/05/16 11:55:48;;;;;;;8.05;1.60;;;;;;;;;;5083856;28;20453;-67
2021/05/16 11:58:14;;;;;;;7.88;1.60;;;;;;;;;;5080915;28;20410;-68
2021/05/16 12:00:41;;;;;;;6.72;1.83;;;;;;;;;;5072856;28;20499;-67
2021/05/16 12:03:16;;;;;;;6.65;2.30;;;;;;;;;;5072217;28;20044;-67
2021/05/16 12:05:43;;;;;;;10.48;2.50;;;;;;;;;;5084081;28;20028;-68
2021/05/16 12:08:16;;;;;;;7.85;2.40;;;;;;;;;;5078393;28;20047;-67
2021/05/16 12:10:43;;;;;;;12.27;2.45;;;;;;;;;;5065248;28;20020;-68
2021/05/16 12:13:22;;;;;;;13.85;2.20;;;;;;;;;;5060896;28;20155;-66
2021/05/16 12:15:48;;;;;;;10.93;1.75;;;;;;;;;;5077951;28;20069;-68
2021/05/16 12:18:18;;;;;;;10.02;2.58;;;;;;;;;;5075046;28;20016;-68
2021/05/16 12:20:44;;;;;;;6.60;1.85;;;;;;;;;;5077097;28;20510;-69
2021/05/16 12:23:10;;;;;;;6.63;1.98;;;;;;;;;;5080644;28;20020;-69
2021/05/16 12:25:36;;;;;;;11.93;3.30;;;;;;;;;;5082419;28;20032;-68
2021/05/16 12:28:05;;;;;;;20.25;2.65;;;;;;;;;;5080463;28;20020;-68
2021/05/16 12:30:31;;;;;;;6.03;2.05;;;;;;;;;;5084135;28;20039;-69
2021/05/16 12:32:57;;;;;;;10.93;2.72;;;;;;;;;;5081573;28;20067;-71
2021/05/16 12:35:23;;;;;;;10.15;2.03;;;;;;;;;;5080759;28;20032;-69
2021/05/16 12:37:49;;;;;;;8.13;2.40;;;;;;;;;;5077122;28;20050;-67
2021/05/16 12:40:25;;;;;;;11.85;3.13;;;;;;;;;;5080255;28;20053;-69
2021/05/16 12:43:05;;;;;;;7.05;2.60;;;;;;;;;;5081528;28;20063;-67
2021/05/16 12:45:31;;;;;;;12.90;2.83;;;;;;;;;;5082960;28;20038;-70
2021/05/16 12:47:57;;;;;;;12.07;3.08;;;;;;;;;;5078649;28;20028;-67
2021/05/16 12:50:30;;;;;;;13.23;4.03;;;;;;;;;;5080992;28;20541;-69
2021/05/16 12:53:38;;;;;;;12.27;3.65;;;;;;;;;;5079827;28;20028;-69
2021/05/16 12:56:11;;;;;;;9.88;3.40;;;;;;;;;;5002263;28;20025;-69
2021/05/16 12:58:46;;;;;;;11.23;3.58;;;;;;;;;;4998991;28;20041;-69
2021/05/16 13:01:19;;;;;;;8.52;3.78;;;;;;;;;;5052024;28;20035;-69
2021/05/16 13:03:52;;;;;;;8.57;3.08;;;;;;;;;;5087530;28;20050;-70
2021/05/16 13:06:18;;;;;;;10.35;4.05;;;;;;;;;;5090081;28;20074;-69
2021/05/16 13:08:50;;;;;;;12.93;4.15;;;;;;;;;;5083602;28;20042;-69
2021/05/16 13:11:16;;;;;;;9.52;2.45;;;;;;;;;;5085244;28;20020;-70
2021/05/16 13:13:43;;;;;;;7.22;2.08;;;;;;;;;;5084438;28;20121;-69
2021/05/16 13:16:10;;;;;;;5.05;1.75;;;;;;;;;;5085254;28;20024;-68
2021/05/16 13:18:53;;;;;;;8.20;2.22;;;;;;;;;;5083362;28;20025;-68
2021/05/16 13:21:22;;;;;;;8.93;2.65;;;;;;;;;;5085384;28;20111;-69
2021/05/16 13:23:48;;;;;;;8.20;1.65;;;;;;;;;;5085010;28;20028;-69
2021/05/16 13:26:15;;;;;;;10.38;2.90;;;;;;;;;;5084010;28;20380;-68
2021/05/16 13:28:41;;;;;;;8.88;2.03;;;;;;;;;;5081813;28;20043;-69
2021/05/16 13:31:09;;;;;;;7.82;1.67;;;;;;;;;;5084769;28;20082;-69
2021/05/16 13:33:35;;;;;;;10.60;2.25;;;;;;;;;;5085752;28;20520;-69
2021/05/16 13:36:02;;;;;;;7.30;1.30;;;;;;;;;;5085160;28;20126;-71
2021/05/16 13:38:29;;;;;;;10.52;2.50;;;;;;;;;;5065326;28;20389;-70
2021/05/16 13:40:55;;;;;;;5.82;1.83;;;;;;;;;;5085375;28;20062;-71
2021/05/16 13:43:21;;;;;;;7.88;1.80;;;;;;;;;;5085931;28;20027;-70
2021/05/16 13:45:48;;;;;;;11.50;2.50;;;;;;;;;;5082570;28;20078;-71
2021/05/16 13:48:14;;;;;;;9.13;2.30;;;;;;;;;;5080913;28;20082;-71
2021/05/16 13:50:40;;;;;;;9.40;2.30;;;;;;;;;;5083730;28;20115;-68
2021/05/16 13:53:06;;;;;;;9.60;2.40;;;;;;;;;;5084397;28;20094;-69
2021/05/16 13:55:32;;;;;;;9.88;2.60;;;;;;;;;;5082803;28;20024;-70
2021/05/16 13:58:01;;;;;;;13.55;2.90;;;;;;;;;;5079149;28;20028;-69
2021/05/16 14:00:27;;;;;;;8.80;2.50;;;;;;;;;;5067976;28;20384;-69
2021/05/16 14:02:53;;;;;;;16.75;3.40;;;;;;;;;;5085148;28;20127;-68
2021/05/16 14:05:20;;;;;;;13.23;2.75;;;;;;;;;;5082087;28;20040;-68
2021/05/16 14:07:46;;;;;;;16.83;2.78;;;;;;;;;;5080777;28;20272;-69
2021/05/16 14:10:12;;;;;;;16.08;3.15;;;;;;;;;;5083517;28;20024;-69
2021/05/16 14:12:38;;;;;;;17.48;3.45;;;;;;;;;;5083979;28;20028;-69
2021/05/16 14:15:05;;;;;;;17.35;2.53;;;;;;;;;;5068552;28;20112;-68
2021/05/16 14:17:31;;;;;;;13.07;2.63;;;;;;;;;;5075789;28;20032;-69
2021/05/16 14:19:57;;;;;;;18.55;3.70;;;;;;;;;;5083552;28;20023;-68
2021/05/16 14:22:23;;;;;;;13.60;3.15;;;;;;;;;;5085138;28;20048;-69
2021/05/16 14:24:49;;;;;;;18.70;2.88;;;;;;;;;;5082596;28;20035;-70
2021/05/16 14:27:15;;;;;;;21.90;3.85;;;;;;;;;;5079193;28;20036;-68
2021/05/16 14:29:41;;;;;;;25.35;3.63;;;;;;;;;;5082233;28;20502;-69
2021/05/16 14:32:07;;;;;;;19.88;3.00;;;;;;;;;;5082970;28;20492;-68